American Highway — H3AJ — position and weather

sailwx.info

Track history (hours):
 
Tides and Currents Weather Stations Pressure Air Temp Water Temp Dewpoint Dewpoint Depression Visibility Wind Speed Wind Dir Waves Ship Positions

American Highway

Last reported at 2018-Jul-21 13:29 UTC. Time now 2018-Jul-21 13:38 UTC.
Position N 37°12' W 012°15'.

Length 179 m; draft 7.5 m.

Type: Cargo ship. MMSI: 351124000.

Date/timePositionNaut miles runAvg speedWind from/ knotsBaromVisibWave heightAir tempDewpointWater temp
2018-Jul-21 13:29N 37°12' W 012°15'33615.9
2018-Jul-20 16:21N 31°45' W 013°50'515.5
2018-Jul-20 16:00N 31°40' W 013°51'815.6
2018-Jul-20 15:28N 31°32' W 013°53'715.7
2018-Jul-20 15:00N 31°25' W 013°55'815.7
2018-Jul-20 14:30N 31°17' W 013°58'816.0
2018-Jul-20 14:00N 31°09' W 013°60'816.1
2018-Jul-20 13:30N 31°01' W 014°02'916.2
2018-Jul-20 12:57N 30°53' W 014°04'716.3
2018-Jul-20 12:30N 30°46' W 014°06'816.0
2018-Jul-20 12:00N 30°38' W 014°08'816.0
2018-Jul-20 11:29N 30°30' W 014°10'816.0
2018-Jul-20 11:00N 30°22' W 014°13'815.9
2018-Jul-20 10:30N 30°15' W 014°15'815.7
2018-Jul-20 10:00N 30°07' W 014°17'815.7
2018-Jul-20 09:30N 29°59' W 014°19'815.5
2018-Jul-20 09:00N 29°52' W 014°21'815.3
2018-Jul-20 08:30N 29°44' W 014°23'815.0
2018-Jul-20 08:00N 29°37' W 014°25'715.1
2018-Jul-20 07:30N 29°30' W 014°27'815.1
2018-Jul-20 07:00N 29°22' W 014°29'815.2
2018-Jul-20 06:29N 29°15' W 014°31'715.5
2018-Jul-20 06:00N 29°07' W 014°33'815.4
2018-Jul-20 05:30N 28°60' W 014°35'815.5
2018-Jul-20 05:00N 28°52' W 014°37'815.2
2018-Jul-20 04:30N 28°45' W 014°39'815.4
2018-Jul-20 04:00N 28°37' W 014°42'815.8
2018-Jul-20 03:30N 28°30' W 014°45'815.9
2018-Jul-20 03:00N 28°23' W 014°48'815.8
2018-Jul-20 02:30N 28°15' W 014°51'815.8
2018-Jul-20 02:00N 28°08' W 014°54'815.4
2018-Jul-20 01:30N 28°01' W 014°57'815.3
2018-Jul-20 01:00N 27°53' W 014°60'815.0
2018-Jul-20 00:30N 27°46' W 015°03'714.6
2018-Jul-20 00:00N 27°39' W 015°06'714.8
2018-Jul-19 23:30N 27°33' W 015°09'714.6
2018-Jul-19 23:00N 27°26' W 015°12'714.3
2018-Jul-19 22:30N 27°19' W 015°15'714.3
2018-Jul-19 22:00N 27°13' W 015°18'714.8
2018-Jul-19 21:30N 27°06' W 015°21'815.2
2018-Jul-19 20:58N 26°58' W 015°25'715.3
2018-Jul-19 20:30N 26°52' W 015°27'815.3
2018-Jul-19 20:00N 26°44' W 015°30'815.5
2018-Jul-19 19:29N 26°37' W 015°34'1115.7
2018-Jul-19 18:48N 26°27' W 015°38'515.6
2018-Jul-19 18:29N 26°22' W 015°40'1415.6
2018-Jul-19 17:34N 26°09' W 015°46'215.6
2018-Jul-19 17:29N 26°08' W 015°46'  
2018-Jul-12 09:07N 05°12' W 000°15'316.0
2018-Jul-12 08:55N 05°15' W 000°14'615.8
2018-Jul-12 08:30N 05°20' W 000°10'815.5
2018-Jul-12 08:00N 05°25' W 000°04'815.6
2018-Jul-12 07:30N 05°31' E 000°02'713.5
2018-Jul-12 07:00N 05°37' E 000°03'3 5.4
2018-Jul-12 06:30N 05°38' E 000°01'0 0.2
2018-Jul-12 05:58N 05°38' E 000°01'0 0.0
2018-Jul-12 05:28N 05°38' E 000°01'0 0.0
2018-Jul-12 04:58N 05°38' E 000°01'0 0.0
2018-Jul-12 04:28N 05°38' E 000°01'0 0.0
2018-Jul-12 03:58N 05°38' E 000°01'0 0.0
2018-Jul-12 03:28N 05°38' E 000°01'0 0.0
2018-Jul-12 02:58N 05°38' E 000°01'0 0.0
2018-Jul-12 02:28N 05°38' E 000°01'0 0.0
2018-Jul-12 01:58N 05°38' E 000°01'0 0.0
2018-Jul-12 01:28N 05°38' E 000°01'0 0.0
2018-Jul-12 00:58N 05°38' E 000°01'0 0.0
2018-Jul-12 00:28N 05°38' E 000°01'0 0.0
2018-Jul-11 23:58N 05°38' E 000°01'0 0.0
2018-Jul-11 23:28N 05°38' E 000°01'0 0.0
2018-Jul-11 22:58N 05°38' E 000°01'0 0.1
2018-Jul-11 22:31N 05°38' E 000°01'2 3.3
2018-Jul-11 22:00N 05°38' E 000°02'2 3.9
2018-Jul-11 21:30N 05°37' E 000°04'4 7.6
2018-Jul-11 21:01N 05°33' E 000°06'612.5
2018-Jul-11 20:30N 05°31' E 000°12'917.6
2018-Jul-11 20:00N 05°29' E 000°20'917.5
2018-Jul-11 19:30N 05°28' E 000°29'917.6
2018-Jul-11 19:00N 05°26' E 000°38'917.4
2018-Jul-11 18:30N 05°24' E 000°46'816.7
2018-Jul-11 18:00N 05°24' E 000°55'1117.4
2018-Jul-11 17:22N 05°28' E 001°06'717.5
2018-Jul-11 16:57N 05°30' E 001°13'1517.5
2018-Jul-11 16:07N 05°34' E 001°26'217.5
2018-Jul-11 15:59N 05°35' E 001°29'  
Track history (hours):
 
Tides and Currents Weather Stations Pressure Air Temp Water Temp Dewpoint Dewpoint Depression Visibility Wind Speed Wind Dir Waves Ship Positions

American Highway

Last reported at 2018-Jul-21 13:29 UTC. Time now 2018-Jul-21 13:38 UTC.
Position N 37°12' W 012°15'.

Length 179 m; draft 7.5 m.

Type: Cargo ship. MMSI: 351124000.

Date/timePositionNaut miles runAvg speedWind from/ knotsBaromVisibWave heightAir tempDewpointWater temp
2018-Jul-21 13:29N 37°12' W 012°15'33615.9
2018-Jul-20 16:21N 31°45' W 013°50'515.5
2018-Jul-20 16:00N 31°40' W 013°51'815.6
2018-Jul-20 15:28N 31°32' W 013°53'715.7
2018-Jul-20 15:00N 31°25' W 013°55'815.7
2018-Jul-20 14:30N 31°17' W 013°58'816.0
2018-Jul-20 14:00N 31°09' W 013°60'816.1
2018-Jul-20 13:30N 31°01' W 014°02'916.2
2018-Jul-20 12:57N 30°53' W 014°04'716.3
2018-Jul-20 12:30N 30°46' W 014°06'816.0
2018-Jul-20 12:00N 30°38' W 014°08'816.0
2018-Jul-20 11:29N 30°30' W 014°10'816.0
2018-Jul-20 11:00N 30°22' W 014°13'815.9
2018-Jul-20 10:30N 30°15' W 014°15'815.7
2018-Jul-20 10:00N 30°07' W 014°17'815.7
2018-Jul-20 09:30N 29°59' W 014°19'815.5
2018-Jul-20 09:00N 29°52' W 014°21'815.3
2018-Jul-20 08:30N 29°44' W 014°23'815.0
2018-Jul-20 08:00N 29°37' W 014°25'715.1
2018-Jul-20 07:30N 29°30' W 014°27'815.1
2018-Jul-20 07:00N 29°22' W 014°29'815.2
2018-Jul-20 06:29N 29°15' W 014°31'715.5
2018-Jul-20 06:00N 29°07' W 014°33'815.4
2018-Jul-20 05:30N 28°60' W 014°35'815.5
2018-Jul-20 05:00N 28°52' W 014°37'815.2
2018-Jul-20 04:30N 28°45' W 014°39'815.4
2018-Jul-20 04:00N 28°37' W 014°42'815.8
2018-Jul-20 03:30N 28°30' W 014°45'815.9
2018-Jul-20 03:00N 28°23' W 014°48'815.8
2018-Jul-20 02:30N 28°15' W 014°51'815.8
2018-Jul-20 02:00N 28°08' W 014°54'815.4
2018-Jul-20 01:30N 28°01' W 014°57'815.3
2018-Jul-20 01:00N 27°53' W 014°60'815.0
2018-Jul-20 00:30N 27°46' W 015°03'714.6
2018-Jul-20 00:00N 27°39' W 015°06'714.8
2018-Jul-19 23:30N 27°33' W 015°09'714.6
2018-Jul-19 23:00N 27°26' W 015°12'714.3
2018-Jul-19 22:30N 27°19' W 015°15'714.3
2018-Jul-19 22:00N 27°13' W 015°18'714.8
2018-Jul-19 21:30N 27°06' W 015°21'815.2
2018-Jul-19 20:58N 26°58' W 015°25'715.3
2018-Jul-19 20:30N 26°52' W 015°27'815.3
2018-Jul-19 20:00N 26°44' W 015°30'815.5
2018-Jul-19 19:29N 26°37' W 015°34'1115.7
2018-Jul-19 18:48N 26°27' W 015°38'515.6
2018-Jul-19 18:29N 26°22' W 015°40'1415.6
2018-Jul-19 17:34N 26°09' W 015°46'215.6
2018-Jul-19 17:29N 26°08' W 015°46'  
2018-Jul-12 09:07N 05°12' W 000°15'316.0
2018-Jul-12 08:55N 05°15' W 000°14'615.8
2018-Jul-12 08:30N 05°20' W 000°10'815.5
2018-Jul-12 08:00N 05°25' W 000°04'815.6
2018-Jul-12 07:30N 05°31' E 000°02'713.5
2018-Jul-12 07:00N 05°37' E 000°03'3 5.4
2018-Jul-12 06:30N 05°38' E 000°01'0 0.2
2018-Jul-12 05:58N 05°38' E 000°01'0 0.0
2018-Jul-12 05:28N 05°38' E 000°01'0 0.0
2018-Jul-12 04:58N 05°38' E 000°01'0 0.0
2018-Jul-12 04:28N 05°38' E 000°01'0 0.0
2018-Jul-12 03:58N 05°38' E 000°01'0 0.0
2018-Jul-12 03:28N 05°38' E 000°01'0 0.0
2018-Jul-12 02:58N 05°38' E 000°01'0 0.0
2018-Jul-12 02:28N 05°38' E 000°01'0 0.0
2018-Jul-12 01:58N 05°38' E 000°01'0 0.0
2018-Jul-12 01:28N 05°38' E 000°01'0 0.0
2018-Jul-12 00:58N 05°38' E 000°01'0 0.0
2018-Jul-12 00:28N 05°38' E 000°01'0 0.0
2018-Jul-11 23:58N 05°38' E 000°01'0 0.0
2018-Jul-11 23:28N 05°38' E 000°01'0 0.0
2018-Jul-11 22:58N 05°38' E 000°01'0 0.1
2018-Jul-11 22:31N 05°38' E 000°01'2 3.3
2018-Jul-11 22:00N 05°38' E 000°02'2 3.9
2018-Jul-11 21:30N 05°37' E 000°04'4 7.6
2018-Jul-11 21:01N 05°33' E 000°06'612.5
2018-Jul-11 20:30N 05°31' E 000°12'917.6
2018-Jul-11 20:00N 05°29' E 000°20'917.5
2018-Jul-11 19:30N 05°28' E 000°29'917.6
2018-Jul-11 19:00N 05°26' E 000°38'917.4
2018-Jul-11 18:30N 05°24' E 000°46'816.7
2018-Jul-11 18:00N 05°24' E 000°55'1117.4
2018-Jul-11 17:22N 05°28' E 001°06'717.5
2018-Jul-11 16:57N 05°30' E 001°13'1517.5
2018-Jul-11 16:07N 05°34' E 001°26'217.5
2018-Jul-11 15:59N 05°35' E 001°29'  

Dump ship's entire track history